Time;durP1;ratioP1;P1;durP2;ratioP2;P2;SDS_P1;SDS_P2;PMS_P1;PMS_P2;Temp;Humidity;BMP_temperature;BMP_pressure;BME280_temperature;BME280_humidity;BME280_pressure;Samples;Min_cycle;Max_cycle;Signal;HPM_P1;HPM_P2
2024/01/24 00:00:54;;;;;;;3.13;2.30;;;;;;;13.82;46.15;99612.53;6728652;29;20697;-82
2024/01/24 00:04:17;;;;;;;4.60;2.60;;;;;;;14.00;46.41;99631.72;6729310;29;20752;-82
2024/01/24 00:07:38;;;;;;;6.43;2.33;;;;;;;14.04;46.26;99646.56;6731878;29;20348;-82
2024/01/24 00:11:01;;;;;;;4.33;2.27;;;;;;;13.88;46.37;99644.22;6726200;29;20348;-82
2024/01/24 00:14:23;;;;;;;6.30;2.27;;;;;;;14.10;46.12;99624.03;6734955;29;20244;-82
2024/01/24 00:17:44;;;;;;;3.30;1.90;;;;;;;13.82;46.52;99609.81;6725059;29;20212;-82
2024/01/24 00:21:07;;;;;;;5.47;2.50;;;;;;;13.82;46.79;99607.94;6732110;29;20303;-83
2024/01/24 00:24:28;;;;;;;3.33;1.97;;;;;;;13.55;47.21;99583.69;6733505;29;20316;-83
2024/01/24 00:27:50;;;;;;;6.13;2.23;;;;;;;13.98;46.60;99557.91;6731578;29;20364;-82
2024/01/24 00:31:11;;;;;;;5.07;2.27;;;;;;;13.72;46.68;99576.84;6732889;29;20232;-82
2024/01/24 00:34:33;;;;;;;5.00;2.40;;;;;;;13.39;47.69;99576.78;6731484;29;20236;-82
2024/01/24 00:37:56;;;;;;;3.77;1.90;;;;;;;13.85;46.77;99574.16;6730923;29;20317;-82
2024/01/24 00:41:18;;;;;;;3.77;1.93;;;;;;;14.16;46.35;99548.06;6725032;29;20242;-82
2024/01/24 00:44:40;;;;;;;2.17;2.00;;;;;;;14.05;46.16;99526.19;6731917;29;20738;-81
2024/01/24 00:48:01;;;;;;;3.80;2.07;;;;;;;14.15;46.44;99546.41;6723180;29;21036;-82
2024/01/24 00:51:23;;;;;;;3.53;1.90;;;;;;;14.28;46.00;99534.75;6730985;29;20345;-82
2024/01/24 00:54:46;;;;;;;2.60;1.93;;;;;;;14.26;46.60;99543.09;6731343;29;20272;-82
2024/01/24 00:58:07;;;;;;;6.80;2.37;;;;;;;14.02;46.67;99551.00;6722945;29;20764;-82
2024/01/24 01:01:29;;;;;;;7.43;2.60;;;;;;;14.17;46.48;99557.88;6730803;29;20302;-82
2024/01/24 01:04:50;;;;;;;5.83;2.83;;;;;;;14.17;46.40;99560.59;6730226;29;20207;-83
2024/01/24 01:08:12;;;;;;;7.03;2.53;;;;;;;14.40;46.12;99533.06;6729738;29;20834;-83
2024/01/24 01:11:34;;;;;;;4.17;2.17;;;;;;;14.43;45.30;99549.75;6730912;29;20699;-83
2024/01/24 01:14:56;;;;;;;3.40;2.20;;;;;;;14.88;44.93;99550.69;6731079;29;20326;-83
2024/01/24 01:18:18;;;;;;;3.40;2.20;;;;;;;14.53;46.17;99535.75;6731849;29;20395;-81
2024/01/24 01:21:40;;;;;;;4.10;2.17;;;;;;;14.03;47.70;99537.25;6731695;29;20255;-83
2024/01/24 01:25:02;;;;;;;4.23;2.10;;;;;;;14.07;47.28;99530.38;6731571;29;20256;-83
2024/01/24 01:28:25;;;;;;;3.60;2.10;;;;;;;14.14;47.30;99512.22;6731518;29;20237;-83
2024/01/24 01:31:47;;;;;;;2.10;1.80;;;;;;;14.24;47.36;99512.66;6731308;29;20303;-84
2024/01/24 01:35:09;;;;;;;2.87;1.90;;;;;;;14.21;47.59;99514.97;6731637;29;20369;-80
2024/01/24 01:38:30;;;;;;;2.23;2.03;;;;;;;14.19;47.79;99512.44;6730081;29;20964;-80
2024/01/24 01:41:52;;;;;;;3.73;2.00;;;;;;;13.94;48.58;99519.53;6731161;29;20718;-80
2024/01/24 01:45:15;;;;;;;3.93;1.83;;;;;;;14.24;47.82;99522.66;6730901;29;20292;-80
2024/01/24 01:48:37;;;;;;;4.80;2.30;;;;;;;14.38;47.50;99527.84;6732959;29;20322;-80
2024/01/24 01:51:58;;;;;;;5.03;2.10;;;;;;;14.47;47.40;99520.31;6739290;29;20212;-80
2024/01/24 01:55:20;;;;;;;2.07;1.77;;;;;;;14.02;48.36;99504.91;6739720;29;20204;-80
2024/01/24 01:58:42;;;;;;;3.20;1.90;;;;;;;13.91;48.59;99481.13;6739540;29;20638;-81
2024/01/24 02:02:05;;;;;;;3.97;2.33;;;;;;;14.19;48.14;99500.75;6739888;29;20623;-82
2024/01/24 02:05:27;;;;;;;2.53;1.80;;;;;;;14.24;48.14;99506.38;6740756;29;20216;-83
2024/01/24 02:08:48;;;;;;;1.90;1.80;;;;;;;13.91;49.16;99510.97;6739817;29;20323;-83
2024/01/24 02:12:10;;;;;;;3.53;2.00;;;;;;;13.43;50.63;99512.19;6740647;29;20298;-82
2024/01/24 02:15:31;;;;;;;4.57;2.00;;;;;;;13.92;49.37;99496.38;6740772;29;20284;-83
2024/01/24 02:18:55;;;;;;;3.20;2.10;;;;;;;14.17;48.24;99497.41;6739847;29;20251;-84
2024/01/24 02:22:17;;;;;;;2.20;1.97;;;;;;;13.75;49.07;99487.81;6740677;29;20224;-83
2024/01/24 02:25:40;;;;;;;3.47;2.10;;;;;;;13.97;49.00;99470.31;6740875;29;20204;-83
2024/01/24 02:29:02;;;;;;;2.47;1.83;;;;;;;13.86;49.57;99460.09;6740454;29;20354;-82
2024/01/24 02:32:23;;;;;;;5.20;2.40;;;;;;;13.23;51.25;99466.09;6741204;29;20255;-83
2024/01/24 02:35:45;;;;;;;4.67;2.20;;;;;;;13.22;51.26;99486.09;6741382;29;20749;-82
2024/01/24 02:39:06;;;;;;;4.93;1.77;;;;;;;12.89;52.16;99484.31;6740937;29;20318;-83
2024/01/24 02:42:29;;;;;;;3.60;2.17;;;;;;;13.49;51.10;99465.31;6740938;29;20208;-84
2024/01/24 02:45:51;;;;;;;5.70;2.60;;;;;;;13.97;49.65;99462.16;6740952;29;20664;-83
2024/01/24 02:49:12;;;;;;;1.90;1.70;;;;;;;13.79;49.93;99464.69;6744360;29;20311;-84
2024/01/24 02:52:34;;;;;;;3.97;2.20;;;;;;;13.35;51.03;99442.81;6741073;29;20229;-83
2024/01/24 02:55:55;;;;;;;6.50;4.47;;;;;;;13.82;50.20;99447.19;6720100;29;20263;-83
2024/01/24 02:59:18;;;;;;;3.03;1.80;;;;;;;13.62;51.10;99449.06;6736394;29;20368;-83
2024/01/24 03:02:40;;;;;;;3.37;2.00;;;;;;;14.05;49.79;99421.25;6733618;29;20291;-83
2024/01/24 03:06:01;;;;;;;2.83;1.90;;;;;;;14.08;50.14;99430.84;6733187;29;20290;-80
2024/01/24 03:09:23;;;;;;;3.33;1.70;;;;;;;13.93;49.97;99431.09;6732861;29;20273;-80
2024/01/24 03:12:44;;;;;;;4.97;1.80;;;;;;;14.22;49.89;99448.81;6733076;29;20280;-83
2024/01/24 03:16:08;;;;;;;3.13;1.53;;;;;;;14.51;48.52;99449.13;6732660;29;20345;-83
2024/01/24 03:19:29;;;;;;;5.73;2.00;;;;;;;14.48;49.05;99457.72;6732950;29;20284;-83
2024/01/24 03:22:51;;;;;;;3.63;2.10;;;;;;;14.09;50.46;99459.66;6733005;29;20875;-83
2024/01/24 03:26:15;;;;;;;2.13;1.60;;;;;;;14.22;50.52;99440.69;6732452;29;20205;-83
2024/01/24 03:29:36;;;;;;;2.53;1.57;;;;;;;14.63;49.68;99455.53;6733966;29;20598;-82
2024/01/24 03:33:00;;;;;;;4.37;2.57;;;;;;;14.81;49.28;99430.41;6732840;29;20313;-83
2024/01/24 03:36:22;;;;;;;3.73;1.90;;;;;;;14.77;49.21;99456.31;6731937;29;20311;-82
2024/01/24 03:39:43;;;;;;;1.97;1.70;;;;;;;14.87;50.05;99459.41;6732843;29;20390;-82
2024/01/24 03:43:05;;;;;;;2.93;1.50;;;;;;;14.67;50.60;99451.34;6732311;29;20579;-83
2024/01/24 03:46:27;;;;;;;3.50;1.87;;;;;;;15.18;49.49;99459.44;6731684;29;20214;-83
2024/01/24 03:49:50;;;;;;;4.93;2.00;;;;;;;14.80;50.04;99451.28;6732277;29;20239;-81
2024/01/24 03:53:11;;;;;;;2.97;1.93;;;;;;;14.84;50.35;99457.13;6732363;29;20349;-81
2024/01/24 03:56:33;;;;;;;2.10;1.77;;;;;;;14.65;50.83;99445.31;6731461;29;20633;-81
2024/01/24 03:59:54;;;;;;;4.13;2.50;;;;;;;14.69;50.99;99443.00;6732314;29;20283;-81
2024/01/24 04:03:16;;;;;;;4.63;2.30;;;;;;;14.70;51.07;99442.78;6733362;29;20747;-83
2024/01/24 04:06:39;;;;;;;4.57;2.10;;;;;;;14.87;50.84;99441.22;6732416;29;20289;-84
2024/01/24 04:10:01;;;;;;;2.60;1.60;;;;;;;14.86;51.03;99449.63;6732075;29;20294;-83
2024/01/24 04:13:23;;;;;;;2.93;1.80;;;;;;;14.87;51.13;99449.38;6731985;29;20233;-84
2024/01/24 04:16:44;;;;;;;2.83;1.80;;;;;;;14.89;51.25;99446.44;6731306;29;20350;-83
2024/01/24 04:20:08;;;;;;;2.13;1.70;;;;;;;15.10;50.81;99455.09;6731283;29;20313;-83
2024/01/24 04:23:31;;;;;;;4.50;1.80;;;;;;;14.99;51.10;99449.53;6731268;29;20213;-83
2024/01/24 04:26:53;;;;;;;4.63;1.90;;;;;;;15.00;51.25;99473.75;6731518;29;20243;-83
2024/01/24 04:30:15;;;;;;;3.53;1.93;;;;;;;15.22;51.15;99476.97;6731321;29;20370;-83
2024/01/24 04:33:37;;;;;;;2.07;1.90;;;;;;;14.82;51.84;99468.19;6731211;29;20236;-83
2024/01/24 04:36:58;;;;;;;3.17;1.90;;;;;;;14.96;51.67;99456.22;6730987;29;20345;-81
2024/01/24 04:40:22;;;;;;;3.20;1.70;;;;;;;15.13;51.72;99460.09;6731862;29;20234;-81
2024/01/24 04:43:44;;;;;;;3.23;2.20;;;;;;;15.22;51.22;99447.09;6731286;29;20204;-81
2024/01/24 04:47:06;;;;;;;4.17;2.40;;;;;;;15.04;52.05;99453.25;6730637;29;20242;-81
2024/01/24 04:50:27;;;;;;;2.53;1.87;;;;;;;15.43;51.42;99450.31;6730949;29;20588;-81
2024/01/24 04:53:50;;;;;;;3.13;2.07;;;;;;;14.90;52.63;99462.53;6731057;29;20320;-81
2024/01/24 04:57:13;;;;;;;4.33;1.90;;;;;;;15.50;51.14;99472.84;6730359;29;20212;-81
2024/01/24 05:00:34;;;;;;;3.60;1.77;;;;;;;14.89;53.07;99449.16;6731314;29;20326;-82
2024/01/24 05:03:56;;;;;;;3.77;2.10;;;;;;;15.55;51.25;99445.84;6730705;29;20210;-83
2024/01/24 05:07:17;;;;;;;4.27;1.80;;;;;;;14.87;53.25;99448.56;6729876;29;20331;-83
2024/01/24 05:10:39;;;;;;;4.60;2.10;;;;;;;15.58;51.67;99450.00;6730217;29;20375;-83
2024/01/24 05:14:02;;;;;;;2.87;1.80;;;;;;;16.00;50.69;99444.59;6730814;29;20386;-83
2024/01/24 05:17:23;;;;;;;4.53;2.00;;;;;;;15.87;50.90;99438.44;6731517;29;20238;-81
2024/01/24 05:20:45;;;;;;;2.43;2.10;;;;;;;15.71;51.45;99458.88;6731394;29;20265;-80
2024/01/24 05:24:06;;;;;;;4.97;2.07;;;;;;;15.68;51.65;99461.22;6731058;29;20855;-81
2024/01/24 05:27:28;;;;;;;4.80;1.80;;;;;;;15.79;51.79;99455.03;6731943;29;20306;-83
2024/01/24 05:30:51;;;;;;;4.67;2.23;;;;;;;16.14;50.90;99477.91;6732914;29;20216;-82
2024/01/24 05:34:12;;;;;;;3.70;2.03;;;;;;;16.01;51.19;99492.50;6732361;29;20381;-81
2024/01/24 05:37:34;;;;;;;2.87;1.80;;;;;;;16.05;51.28;99469.22;6731815;29;20272;-81
2024/01/24 05:40:55;;;;;;;4.23;1.70;;;;;;;15.50;52.70;99483.72;6732073;29;20768;-83
2024/01/24 05:44:17;;;;;;;2.80;1.83;;;;;;;15.67;52.77;99481.28;6730465;29;20301;-83
2024/01/24 05:47:40;;;;;;;6.47;2.27;;;;;;;16.03;51.83;99467.78;6730885;29;20305;-81
2024/01/24 05:51:02;;;;;;;2.10;1.80;;;;;;;16.08;51.92;99490.53;6731900;29;20222;-81
2024/01/24 05:54:24;;;;;;;3.23;2.00;;;;;;;16.23;51.31;99465.72;6732598;29;20233;-81
2024/01/24 05:57:46;;;;;;;3.90;2.23;;;;;;;16.42;51.14;99495.47;6731978;29;20621;-81
2024/01/24 06:01:07;;;;;;;4.73;2.27;;;;;;;15.91;52.21;99455.97;6732427;29;20207;-81
2024/01/24 06:04:30;;;;;;;4.83;2.10;;;;;;;16.10;52.39;99438.66;6732206;29;20256;-80
2024/01/24 06:07:52;;;;;;;3.53;2.13;;;;;;;16.19;52.08;99451.72;6731181;29;20324;-81
2024/01/24 06:11:14;;;;;;;2.60;1.77;;;;;;;16.14;52.39;99434.38;6731914;29;20217;-82
2024/01/24 06:14:35;;;;;;;5.47;1.90;;;;;;;16.31;51.98;99430.03;6732113;29;20238;-83
2024/01/24 06:17:57;;;;;;;2.60;1.90;;;;;;;15.87;53.17;99439.25;6729421;29;20363;-82
2024/01/24 06:21:20;;;;;;;2.37;1.70;;;;;;;15.55;54.44;99432.25;6712899;29;20301;-81
2024/01/24 06:24:42;;;;;;;1.90;1.50;;;;;;;16.20;53.20;99445.22;6728255;29;20229;-82
2024/01/24 06:28:05;;;;;;;2.23;1.70;;;;;;;15.98;53.69;99438.53;6729557;29;20313;-82
2024/01/24 06:31:26;;;;;;;3.20;1.70;;;;;;;16.42;52.88;99443.75;6730912;29;20305;-82
2024/01/24 06:34:48;;;;;;;3.40;1.87;;;;;;;16.20;53.31;99447.09;6731613;29;20295;-81
2024/01/24 06:38:12;;;;;;;4.10;1.87;;;;;;;16.28;53.34;99460.44;6734914;29;20234;-81
2024/01/24 06:41:34;;;;;;;2.67;1.80;;;;;;;15.80;54.93;99457.53;6736941;29;20213;-81
2024/01/24 06:44:55;;;;;;;2.40;1.70;;;;;;;16.07;54.01;99445.34;6736546;29;20255;-78
2024/01/24 06:48:19;;;;;;;3.23;1.80;;;;;;;15.50;55.78;99445.66;6733345;29;20819;-78
2024/01/24 06:51:41;;;;;;;2.03;1.80;;;;;;;15.61;55.75;99458.53;6735671;29;20212;-80
2024/01/24 06:55:04;;;;;;;3.20;1.80;;;;;;;15.60;55.97;99466.91;6732179;29;20232;-81
2024/01/24 06:58:26;;;;;;;1.60;1.50;;;;;;;15.80;55.25;99451.28;6718627;29;20708;-80
2024/01/24 07:01:47;;;;;;;3.80;1.87;;;;;;;16.30;54.54;99433.81;6709032;29;20291;-81
2024/01/24 07:05:10;;;;;;;3.23;1.60;;;;;;;16.09;55.44;99456.00;6710538;29;20218;-80
2024/01/24 07:08:32;;;;;;;3.97;1.57;;;;;;;16.28;55.50;99452.25;6717007;29;20229;-80
2024/01/24 07:11:58;;;;;;;1.83;1.47;;;;;;;16.79;53.48;99415.44;6732875;29;20217;-80
2024/01/24 07:15:19;;;;;;;2.67;1.87;;;;;;;16.64;54.05;99428.59;6730861;29;20294;-80
2024/01/24 07:18:42;;;;;;;7.93;1.80;;;;;;;16.41;54.50;99438.53;6739410;29;20972;-80
2024/01/24 07:22:04;;;;;;;1.80;1.70;;;;;;;16.70;53.45;99424.97;6739616;29;20218;-81
2024/01/24 07:25:25;;;;;;;3.50;1.60;;;;;;;16.02;55.00;99411.72;6736725;29;20214;-81
2024/01/24 07:28:48;;;;;;;4.00;1.70;;;;;;;16.05;55.36;99430.31;6736639;29;20231;-82
2024/01/24 07:32:10;;;;;;;3.77;1.80;;;;;;;16.33;54.61;99417.84;6737901;29;20214;-83
2024/01/24 07:35:31;;;;;;;1.97;1.80;;;;;;;16.61;54.07;99429.06;6736862;29;20223;-81
2024/01/24 07:38:53;;;;;;;2.37;1.60;;;;;;;16.24;54.61;99402.06;6734868;29;20296;-81
2024/01/24 07:42:15;;;;;;;3.00;1.53;;;;;;;16.35;54.44;99417.63;6734664;29;20215;-82
2024/01/24 07:45:38;;;;;;;2.30;1.77;;;;;;;16.82;53.60;99408.69;6727854;29;20242;-82
2024/01/24 07:48:59;;;;;;;1.90;1.50;;;;;;;16.72;53.50;99422.00;6733669;29;20375;-81
2024/01/24 07:52:21;;;;;;;1.50;1.40;;;;;;;17.16;52.54;99400.63;6734416;29;20250;-82
2024/01/24 07:55:42;;;;;;;3.20;1.60;;;;;;;16.41;53.94;99414.03;6734015;29;20330;-83
2024/01/24 07:59:05;;;;;;;1.73;1.60;;;;;;;16.72;53.92;99449.25;6734286;29;20323;-83
2024/01/24 08:02:28;;;;;;;1.57;1.47;;;;;;;16.11;55.49;99446.56;6718885;29;20215;-82
2024/01/24 08:05:49;;;;;;;2.03;1.13;;;;;;;16.14;55.84;99454.28;6728259;29;20301;-82
2024/01/24 08:09:11;;;;;;;2.27;1.60;;;;;;;16.59;54.59;99463.03;6733357;29;20375;-82
2024/01/24 08:12:32;;;;;;;1.93;1.80;;;;;;;16.49;54.79;99460.84;6733933;29;20217;-82
2024/01/24 08:15:54;;;;;;;1.90;1.50;;;;;;;17.01;53.49;99464.78;6732198;29;20270;-82
2024/01/24 08:19:17;;;;;;;1.47;1.20;;;;;;;16.86;53.73;99454.31;6734004;29;20241;-80
2024/01/24 08:22:38;;;;;;;2.07;1.80;;;;;;;16.95;53.45;99460.25;6738727;29;20661;-82
2024/01/24 08:26:00;;;;;;;1.50;1.40;;;;;;;16.43;54.42;99464.47;6738915;29;20211;-82
2024/01/24 08:29:21;;;;;;;1.50;1.30;;;;;;;16.55;54.62;99483.59;6737751;29;20284;-82
2024/01/24 08:32:43;;;;;;;2.10;1.30;;;;;;;17.06;53.31;99468.50;6736430;29;20207;-82
2024/01/24 08:36:06;;;;;;;1.53;1.13;;;;;;;16.46;54.31;99449.56;6735311;29;20282;-80
2024/01/24 08:39:27;;;;;;;1.40;1.30;;;;;;;16.80;53.87;99485.16;6736146;29;20273;-82
2024/01/24 08:42:49;;;;;;;1.87;1.30;;;;;;;16.63;54.39;99462.34;6738378;29;20231;-82
2024/01/24 08:46:11;;;;;;;2.20;1.30;;;;;;;16.92;53.79;99456.09;6734749;29;20685;-82
2024/01/24 08:49:32;;;;;;;1.40;1.30;;;;;;;16.52;54.67;99456.84;6735239;29;20231;-81
2024/01/24 08:52:55;;;;;;;1.10;1.10;;;;;;;16.96;54.06;99465.50;6736173;29;20267;-83
2024/01/24 08:56:17;;;;;;;1.13;1.10;;;;;;;16.62;54.99;99448.94;6735477;29;20242;-82
2024/01/24 08:59:38;;;;;;;1.30;1.20;;;;;;;16.67;54.88;99440.94;6734732;29;20321;-82
2024/01/24 09:03:00;;;;;;;1.27;1.20;;;;;;;16.10;56.22;99453.06;6734010;29;20226;-82
2024/01/24 09:06:22;;;;;;;1.33;1.23;;;;;;;16.40;55.86;99454.03;6732638;29;20208;-82
2024/01/24 09:09:47;;;;;;;1.23;1.10;;;;;;;16.43;55.94;99450.84;6732357;29;20265;-82
2024/01/24 09:13:08;;;;;;;0.93;0.93;;;;;;;16.42;56.15;99462.81;6732379;29;20242;-81
2024/01/24 09:16:30;;;;;;;1.00;1.00;;;;;;;16.65;55.42;99432.16;6731534;29;20323;-82
2024/01/24 09:19:51;;;;;;;2.03;1.40;;;;;;;17.19;54.59;99462.03;6732088;29;20225;-82
2024/01/24 09:23:13;;;;;;;1.43;1.00;;;;;;;17.23;54.52;99468.69;6731700;29;20707;-82
2024/01/24 09:26:36;;;;;;;1.03;1.03;;;;;;;17.18;54.23;99460.38;6731548;29;20706;-82
2024/01/24 09:29:58;;;;;;;1.13;1.00;;;;;;;16.68;56.00;99445.34;6731769;29;20317;-82
2024/01/24 09:33:19;;;;;;;1.27;1.20;;;;;;;17.15;54.77;99449.94;6734539;29;20776;-81
2024/01/24 09:36:45;;;;;;;0.93;0.93;;;;;;;17.14;54.69;99443.66;6732120;29;20239;-81
2024/01/24 09:40:09;;;;;;;1.60;1.00;;;;;;;17.06;54.66;99435.81;6730931;29;20234;-81
2024/01/24 09:43:33;;;;;;;0.97;0.97;;;;;;;16.97;55.33;99441.78;6731584;29;20578;-81
2024/01/24 09:46:55;;;;;;;1.30;1.20;;;;;;;17.36;54.98;99446.69;6730450;29;20954;-81
2024/01/24 09:50:17;;;;;;;1.50;0.90;;;;;;;17.13;55.45;99443.88;6731310;29;20232;-81
2024/01/24 09:53:39;;;;;;;1.77;1.13;;;;;;;17.16;55.73;99430.59;6733232;29;20357;-81
2024/01/24 09:57:01;;;;;;;1.00;1.00;;;;;;;17.30;55.07;99434.81;6729190;29;20786;-80
2024/01/24 10:00:24;;;;;;;1.07;0.90;;;;;;;17.07;56.02;99439.34;6731239;29;20276;-81
2024/01/24 10:03:46;;;;;;;1.13;1.07;;;;;;;17.06;56.45;99434.97;6730581;29;20212;-83
2024/01/24 10:07:08;;;;;;;1.40;1.10;;;;;;;16.93;56.50;99444.13;6730476;29;20209;-81
2024/01/24 10:10:30;;;;;;;0.80;0.80;;;;;;;17.21;55.81;99446.28;6733121;29;20325;-80
2024/01/24 10:13:51;;;;;;;1.00;1.00;;;;;;;17.39;55.38;99429.91;6736276;29;20274;-81
2024/01/24 10:17:14;;;;;;;2.00;1.90;;;;;;;17.43;55.18;99441.97;6735106;29;20226;-80
2024/01/24 10:20:36;;;;;;;2.00;0.90;;;;;;;16.76;57.05;99451.28;6735004;29;20315;-80
2024/01/24 10:23:59;;;;;;;0.80;0.80;;;;;;;17.25;55.58;99447.47;6736016;29;20232;-80
2024/01/24 10:27:20;;;;;;;1.10;1.10;;;;;;;17.23;55.98;99450.41;6734705;29;20223;-79
2024/01/24 10:30:42;;;;;;;0.70;0.70;;;;;;;17.59;55.14;99454.94;6734636;29;20256;-81
2024/01/24 10:34:06;;;;;;;0.93;0.90;;;;;;;17.68;54.84;99438.00;6735143;29;20247;-80
2024/01/24 10:37:27;;;;;;;0.90;0.90;;;;;;;17.78;53.89;99473.72;6734828;29;20235;-80
2024/01/24 10:40:50;;;;;;;0.70;0.70;;;;;;;17.65;54.46;99468.50;6733441;29;20323;-80
2024/01/24 10:44:12;;;;;;;0.80;0.80;;;;;;;17.57;54.13;99466.06;6734412;29;20299;-80
2024/01/24 10:47:33;;;;;;;0.83;0.83;;;;;;;17.77;53.86;99482.13;6733761;29;20236;-80
2024/01/24 10:50:58;;;;;;;1.17;1.17;;;;;;;17.68;55.28;99486.28;6726368;29;20292;-80
2024/01/24 10:54:20;;;;;;;2.40;2.17;;;;;;;17.47;56.16;99490.38;6734422;29;20223;-80
2024/01/24 10:57:43;;;;;;;1.93;1.70;;;;;;;17.74;54.72;99494.34;6734829;29;20734;-81
2024/01/24 11:01:04;;;;;;;1.20;1.20;;;;;;;18.23;53.36;99465.78;6735226;29;20517;-80
2024/01/24 11:04:27;;;;;;;1.00;1.00;;;;;;;18.22;53.25;99491.44;6737943;29;20268;-81
2024/01/24 11:07:55;;;;;;;1.10;1.10;;;;;;;18.08;52.94;99492.72;6735801;29;20252;-80
2024/01/24 11:11:19;;;;;;;0.90;0.90;;;;;;;18.14;53.24;99491.78;6735776;29;20208;-80
2024/01/24 11:14:46;;;;;;;1.00;1.00;;;;;;;18.32;52.48;99503.44;6732060;29;20270;-81
2024/01/24 11:18:25;;;;;;;1.03;1.03;;;;;;;17.65;56.61;99514.84;6718733;29;20742;-80
2024/01/24 11:21:49;;;;;;;2.00;1.40;;;;;;;17.20;59.48;99519.03;6732484;29;20212;-81
2024/01/24 11:25:12;;;;;;;1.53;1.43;;;;;;;17.12;61.30;99562.13;6728097;29;20223;-80
2024/01/24 11:28:34;;;;;;;1.00;1.00;;;;;;;17.04;61.41;99524.28;6734455;29;20259;-80
2024/01/24 11:31:55;;;;;;;1.00;1.00;;;;;;;17.17;61.80;99522.19;6733762;29;20210;-79
2024/01/24 11:35:27;;;;;;;1.10;1.10;;;;;;;16.62;64.21;99553.25;6731444;29;20326;-79
2024/01/24 11:38:49;;;;;;;2.03;1.70;;;;;;;16.77;64.15;99571.94;6730851;29;20756;-78
2024/01/24 11:42:42;;;;;;;3.20;2.80;;;;;;;17.12;64.04;99571.13;6731986;29;20300;-79
2024/01/24 11:46:05;;;;;;;8.40;4.40;;;;;;;16.91;64.65;99563.41;6733332;29;20222;-79
2024/01/24 11:49:28;;;;;;;3.13;2.27;;;;;;;17.53;62.99;99535.81;6742705;29;20313;-80
2024/01/24 11:52:50;;;;;;;2.73;2.50;;;;;;;17.13;63.61;99537.38;6736937;29;20669;-81
2024/01/24 11:56:14;;;;;;;4.27;3.27;;;;;;;17.23;63.45;99534.91;6731321;29;20256;-80
2024/01/24 11:59:37;;;;;;;6.80;5.67;;;;;;;17.08;63.46;99553.56;6731814;29;20234;-82
2024/01/24 12:02:58;;;;;;;1.27;1.27;;;;;;;17.49;62.77;99533.75;6733475;29;20219;-82
2024/01/24 12:06:21;;;;;;;1.90;1.60;;;;;;;17.49;61.76;99534.59;6732212;29;20215;-82
2024/01/24 12:09:42;;;;;;;1.67;1.57;;;;;;;16.80;61.92;99572.31;6732528;29;20706;-82
2024/01/24 12:13:05;;;;;;;3.03;1.90;;;;;;;17.52;60.30;99572.28;6724026;29;20236;-82
2024/01/24 12:16:30;;;;;;;1.77;1.63;;;;;;;17.28;59.42;99567.75;6731444;29;20234;-83
2024/01/24 12:19:51;;;;;;;1.37;1.10;;;;;;;17.24;59.63;99585.66;6745011;29;20223;-82
2024/01/24 12:23:15;;;;;;;3.63;1.30;;;;;;;16.22;58.91;99594.66;6736300;29;20255;-82
2024/01/24 12:26:37;;;;;;;2.83;1.50;;;;;;;16.20;58.25;99592.16;6732701;29;20282;-81
2024/01/24 12:29:58;;;;;;;2.97;1.73;;;;;;;16.45;56.49;99571.22;6733078;29;20247;-79
2024/01/24 12:33:26;;;;;;;3.07;1.80;;;;;;;15.87;56.59;99575.25;6729699;29;20306;-80
2024/01/24 12:36:48;;;;;;;5.10;1.57;;;;;;;16.27;57.32;99609.25;6732629;29;20365;-80
2024/01/24 12:40:11;;;;;;;2.97;1.60;;;;;;;16.33;56.41;99607.56;6733763;29;20601;-79
2024/01/24 12:43:33;;;;;;;2.67;1.30;;;;;;;16.68;54.75;99584.22;6732569;29;20206;-82
2024/01/24 12:46:56;;;;;;;5.63;1.50;;;;;;;16.50;55.17;99571.41;6732402;29;20240;-83
2024/01/24 12:50:21;;;;;;;2.43;1.50;;;;;;;16.36;55.71;99566.25;6731941;29;20223;-82
2024/01/24 12:53:42;;;;;;;4.03;1.70;;;;;;;16.96;54.54;99582.63;6732076;29;20278;-83
2024/01/24 12:57:04;;;;;;;2.53;1.60;;;;;;;16.65;55.56;99590.94;6731085;29;20272;-83
2024/01/24 13:00:26;;;;;;;2.83;1.53;;;;;;;16.73;55.04;99573.44;6731349;29;20329;-84
2024/01/24 13:03:47;;;;;;;1.20;1.20;;;;;;;16.90;54.19;99569.06;6733737;29;20300;-82
2024/01/24 13:07:10;;;;;;;2.30;1.60;;;;;;;16.98;52.57;99553.25;6724966;29;20309;-84
2024/01/24 13:10:34;;;;;;;3.80;1.33;;;;;;;16.89;52.29;99583.75;6723913;29;20326;-83
2024/01/24 13:13:55;;;;;;;2.73;1.60;;;;;;;16.82;52.15;99580.28;6731960;29;20208;-83
2024/01/24 13:17:18;;;;;;;3.33;1.43;;;;;;;16.73;51.45;99568.00;6731252;29;20325;-83
2024/01/24 13:20:39;;;;;;;2.67;1.20;;;;;;;17.11;50.79;99574.06;6731879;29;20562;-82
2024/01/24 13:24:04;;;;;;;2.77;1.53;;;;;;;16.83;50.73;99561.00;6732113;29;20205;-82
2024/01/24 13:27:26;;;;;;;2.87;1.80;;;;;;;16.87;50.63;99585.88;6731834;29;20223;-82
2024/01/24 13:30:47;;;;;;;2.50;1.70;;;;;;;16.12;50.14;99575.25;6739668;29;20292;-82
2024/01/24 13:34:09;;;;;;;3.97;1.87;;;;;;;15.93;50.00;99593.41;6740191;29;20215;-81
2024/01/24 13:37:31;;;;;;;2.83;1.60;;;;;;;16.33;50.20;99585.78;6734585;29;20241;-82
2024/01/24 13:40:54;;;;;;;4.53;2.00;;;;;;;16.17;50.09;99589.03;6734754;29;20283;-82
2024/01/24 13:44:15;;;;;;;3.63;1.73;;;;;;;16.07;49.94;99592.25;6733731;29;20243;-82
2024/01/24 13:47:38;;;;;;;4.43;1.70;;;;;;;16.42;49.71;99587.19;6732809;29;20231;-81
2024/01/24 13:50:59;;;;;;;5.33;2.20;;;;;;;16.48;49.84;99576.25;6734015;29;20212;-82
2024/01/24 13:54:21;;;;;;;2.23;1.53;;;;;;;16.28;50.02;99586.41;6732646;29;20673;-82
2024/01/24 13:57:44;;;;;;;5.50;2.07;;;;;;;16.75;49.12;99593.97;6730942;29;20235;-83
2024/01/24 14:01:05;;;;;;;3.27;1.53;;;;;;;16.55;48.48;99596.06;6731917;29;20260;-82
2024/01/24 14:04:27;;;;;;;3.53;1.80;;;;;;;16.12;49.06;99603.31;6731852;29;20243;-82
2024/01/24 14:07:48;;;;;;;4.63;1.80;;;;;;;16.30;48.90;99597.94;6730837;29;20371;-82
2024/01/24 14:11:11;;;;;;;4.83;2.10;;;;;;;16.35;49.06;99605.44;6731021;29;20238;-82
2024/01/24 14:14:34;;;;;;;5.27;2.00;;;;;;;16.15;48.29;99610.22;6732072;29;20219;-82
2024/01/24 14:17:55;;;;;;;2.77;1.73;;;;;;;16.33;48.22;99604.81;6731051;29;20245;-82
2024/01/24 14:21:17;;;;;;;2.57;2.00;;;;;;;16.10;48.50;99591.81;6730553;29;20318;-82
2024/01/24 14:24:38;;;;;;;4.50;1.80;;;;;;;16.78;47.73;99617.19;6731341;29;20266;-82
2024/01/24 14:28:00;;;;;;;2.60;1.60;;;;;;;16.83;47.18;99620.06;6717776;29;20261;-80
2024/01/24 14:31:23;;;;;;;3.60;1.80;;;;;;;16.48;48.13;99622.50;6726286;29;20215;-82
2024/01/24 14:34:44;;;;;;;5.03;1.90;;;;;;;16.33;49.07;99629.31;6729990;29;20219;-83
2024/01/24 14:38:06;;;;;;;4.77;2.77;;;;;;;16.39;48.73;99618.38;6725837;29;20267;-83
2024/01/24 14:41:27;;;;;;;3.63;1.80;;;;;;;16.36;48.46;99637.03;6723583;29;20233;-83
2024/01/24 14:44:49;;;;;;;3.00;1.57;;;;;;;16.21;48.56;99637.34;6737030;29;20233;-82
2024/01/24 14:48:12;;;;;;;5.77;1.57;;;;;;;16.41;48.56;99646.25;6731304;29;20239;-82
2024/01/24 14:51:34;;;;;;;3.87;1.70;;;;;;;16.53;48.44;99651.78;6732093;29;20239;-82
2024/01/24 14:54:55;;;;;;;7.10;2.37;;;;;;;16.36;48.33;99662.38;6726915;29;20783;-82
2024/01/24 14:58:17;;;;;;;3.53;1.93;;;;;;;16.31;48.83;99672.22;6732159;29;20287;-82
2024/01/24 15:01:38;;;;;;;4.97;2.10;;;;;;;16.05;49.46;99665.09;6735919;29;20215;-82
2024/01/24 15:05:01;;;;;;;5.70;1.97;;;;;;;16.28;49.34;99681.66;6735020;29;20218;-82
2024/01/24 15:08:23;;;;;;;2.97;1.93;;;;;;;16.35;48.96;99681.63;6732883;29;20269;-82
2024/01/24 15:11:44;;;;;;;4.93;2.27;;;;;;;16.32;48.91;99684.78;6731613;29;20245;-84
2024/01/24 15:15:07;;;;;;;4.57;2.20;;;;;;;16.29;48.67;99721.44;6737977;29;20219;-83
2024/01/24 15:18:28;;;;;;;3.87;1.93;;;;;;;15.98;47.98;99709.72;6737542;29;20241;-81
2024/01/24 15:21:51;;;;;;;3.07;2.00;;;;;;;16.23;47.28;99716.06;6736947;29;20712;-83
2024/01/24 15:25:13;;;;;;;4.33;2.07;;;;;;;16.73;45.82;99715.06;6737008;29;20544;-83
2024/01/24 15:28:34;;;;;;;6.60;2.33;;;;;;;16.57;45.53;99721.09;6736344;29;20308;-82
2024/01/24 15:31:56;;;;;;;5.73;2.50;;;;;;;16.42;45.96;99721.41;6716691;29;20289;-82
2024/01/24 15:35:18;;;;;;;8.23;2.53;;;;;;;16.58;44.89;99736.38;6724948;29;20215;-82
2024/01/24 15:38:42;;;;;;;4.77;2.53;;;;;;;16.40;45.52;99739.81;6735986;29;20736;-83
2024/01/24 15:42:19;;;;;;;7.27;2.87;;;;;;;16.18;45.09;99732.19;6736832;29;20215;-88
2024/01/24 15:45:40;;;;;;;4.50;2.13;;;;;;;15.81;46.65;99757.50;6736708;29;20202;-82
2024/01/24 15:49:02;;;;;;;7.77;3.17;;;;;;;16.19;45.89;99756.47;6722503;29;20325;-82
2024/01/24 15:52:24;;;;;;;4.30;2.33;;;;;;;16.08;46.53;99756.31;6724079;29;20736;-81